Time;durP1;ratioP1;P1;durP2;ratioP2;P2;SDS_P1;SDS_P2;PMS_P1;PMS_P2;Temp;Humidity;BMP_temperature;BMP_pressure;BME280_temperature;BME280_humidity;BME280_pressure;Samples;Min_cycle;Max_cycle;Signal;HPM_P1;HPM_P2
2022/10/19 00:01:45;;;;;;;14.57;13.18;;;11.60;98.70;;;;;;5103136;28;20431;-69
2022/10/19 00:04:12;;;;;;;15.05;13.50;;;11.50;98.40;;;;;;5107268;28;20422;-69
2022/10/19 00:06:39;;;;;;;16.02;14.27;;;11.50;98.60;;;;;;5109283;28;20432;-69
2022/10/19 00:09:08;;;;;;;14.88;13.27;;;11.50;98.70;;;;;;5107132;28;20806;-69
2022/10/19 00:11:37;;;;;;;15.93;13.70;;;11.50;98.80;;;;;;5116947;27;20451;-69
2022/10/19 00:14:04;;;;;;;14.57;13.18;;;11.50;98.90;;;;;;5108350;28;20902;-69
2022/10/19 00:16:35;;;;;;;15.88;13.60;;;11.40;98.90;;;;;;5111057;27;20417;-68
2022/10/19 00:19:06;;;;;;;15.65;12.45;;;11.40;98.80;;;;;;5111223;27;20936;-69
2022/10/19 00:21:33;;;;;;;15.35;13.02;;;11.40;98.70;;;;;;5109992;27;20432;-69
2022/10/19 00:23:59;;;;;;;14.65;12.50;;;11.40;99.10;;;;;;5113227;27;20434;-68
2022/10/19 00:26:26;;;;;;;15.95;12.23;;;11.40;99.30;;;;;;5108592;28;20432;-69
2022/10/19 00:28:54;;;;;;;13.27;11.40;;;11.40;99.10;;;;;;5108083;28;20519;-69
2022/10/19 00:31:21;;;;;;;15.50;12.35;;;11.30;99.00;;;;;;5112665;27;20451;-69
2022/10/19 00:33:47;;;;;;;14.13;11.30;;;11.30;99.10;;;;;;5106639;28;21068;-69
2022/10/19 00:36:19;;;;;;;15.43;11.82;;;11.30;99.20;;;;;;5109275;28;20419;-69
2022/10/19 00:38:45;;;;;;;13.18;11.73;;;11.30;99.10;;;;;;5104714;28;20435;-68
2022/10/19 00:41:12;;;;;;;12.17;10.43;;;11.30;99.10;;;;;;5104981;28;20513;-68
2022/10/19 00:43:55;;;;;;;13.18;11.75;;;11.30;99.00;;;;;;5106175;28;20440;-69
2022/10/19 00:46:22;;;;;;;14.00;12.50;;;11.30;99.00;;;;;;5107597;28;20921;-69
2022/10/19 00:48:50;;;;;;;16.75;12.13;;;11.30;99.20;;;;;;5103539;28;20431;-68
2022/10/19 00:51:18;;;;;;;13.63;11.80;;;11.30;99.30;;;;;;5108999;28;20419;-68
2022/10/19 00:53:45;;;;;;;14.18;11.40;;;11.30;99.30;;;;;;5106239;28;20435;-68
2022/10/19 00:56:15;;;;;;;14.02;12.52;;;11.30;99.30;;;;;;5108359;27;20432;-68
2022/10/19 00:58:43;;;;;;;15.73;14.00;;;11.20;99.30;;;;;;5106031;28;20428;-67
2022/10/19 01:01:14;;;;;;;17.35;15.55;;;11.20;99.30;;;;;;5106788;28;20429;-67
2022/10/19 01:03:41;;;;;;;16.20;14.60;;;11.20;99.40;;;;;;5103859;28;20454;-68
2022/10/19 01:06:08;;;;;;;18.02;15.80;;;11.10;99.30;;;;;;5108636;28;20439;-69
2022/10/19 01:08:36;;;;;;;16.35;14.82;;;11.10;99.20;;;;;;5105107;28;20428;-69
2022/10/19 01:11:15;;;;;;;15.70;14.10;;;11.10;99.20;;;;;;5106380;28;20424;-68
2022/10/19 01:13:49;;;;;;;16.98;15.27;;;11.10;99.10;;;;;;5105796;28;20432;-68
2022/10/19 01:16:23;;;;;;;15.80;14.30;;;11.00;99.30;;;;;;5113583;27;20430;-69
2022/10/19 01:18:57;;;;;;;17.40;15.60;;;11.00;99.40;;;;;;5106329;28;20424;-70
2022/10/19 01:21:28;;;;;;;16.80;15.10;;;11.00;99.40;;;;;;5106015;28;20424;-69
2022/10/19 01:24:28;;;;;;;17.63;15.82;;;11.00;99.30;;;;;;5106513;28;20775;-69
2022/10/19 01:27:36;;;;;;;16.20;14.60;;;11.00;99.40;;;;;;5104814;28;20855;-69
2022/10/19 01:30:13;;;;;;;16.47;14.70;;;10.90;99.30;;;;;;5105604;28;20435;-69
2022/10/19 01:32:57;;;;;;;17.07;15.27;;;10.90;99.00;;;;;;5107065;27;22261;-69
2022/10/19 01:35:30;;;;;;;17.83;16.02;;;10.90;99.20;;;;;;5100679;28;20447;-69
2022/10/19 01:38:08;;;;;;;16.40;14.70;;;10.90;99.40;;;;;;5105523;28;20794;-68
2022/10/19 01:40:42;;;;;;;17.33;15.57;;;10.90;99.20;;;;;;5105395;28;20428;-69
2022/10/19 01:43:15;;;;;;;17.58;15.77;;;10.90;99.40;;;;;;5108731;27;20424;-70
2022/10/19 01:45:48;;;;;;;17.45;15.00;;;10.90;99.50;;;;;;5110614;27;20412;-69
2022/10/19 01:48:20;;;;;;;16.00;14.30;;;10.90;99.50;;;;;;5117030;27;20884;-68
2022/10/19 01:50:51;;;;;;;18.45;16.65;;;10.80;99.40;;;;;;5106158;28;20718;-68
2022/10/19 01:53:20;;;;;;;17.88;15.70;;;10.80;99.50;;;;;;5098241;28;20424;-68
2022/10/19 01:55:50;;;;;;;16.23;14.52;;;10.80;99.60;;;;;;5107109;27;20436;-69
2022/10/19 01:58:21;;;;;;;18.00;16.10;;;10.80;99.60;;;;;;5106798;28;20427;-70
2022/10/19 02:00:52;;;;;;;17.15;15.35;;;10.80;99.60;;;;;;5104945;28;20424;-68
2022/10/19 02:03:20;;;;;;;18.98;15.50;;;10.80;99.60;;;;;;5105684;28;20431;-68
2022/10/19 02:05:49;;;;;;;15.48;13.98;;;10.80;99.50;;;;;;5105816;28;20948;-68
2022/10/19 02:08:22;;;;;;;16.50;14.93;;;10.70;99.50;;;;;;5107250;28;20446;-69
2022/10/19 02:10:49;;;;;;;16.20;14.50;;;10.70;99.50;;;;;;5102872;28;20423;-70
2022/10/19 02:13:18;;;;;;;16.80;13.82;;;10.70;99.30;;;;;;5106603;28;20431;-68
2022/10/19 02:15:50;;;;;;;16.00;12.93;;;10.70;99.20;;;;;;5107624;28;20480;-69
2022/10/19 02:18:23;;;;;;;14.57;13.13;;;10.60;99.00;;;;;;5107831;28;20427;-69
2022/10/19 02:20:51;;;;;;;13.88;11.68;;;10.60;99.10;;;;;;5106850;28;20428;-69
2022/10/19 02:23:22;;;;;;;15.70;12.43;;;10.60;98.90;;;;;;5111138;28;20428;-70
2022/10/19 02:25:48;;;;;;;13.95;12.13;;;10.60;98.80;;;;;;5106363;28;20936;-69
2022/10/19 02:28:15;;;;;;;13.82;11.60;;;10.60;98.90;;;;;;5106338;28;20428;-70
2022/10/19 02:30:42;;;;;;;14.35;12.50;;;10.50;98.80;;;;;;5110034;28;20423;-70
2022/10/19 02:33:12;;;;;;;18.50;12.70;;;10.50;98.70;;;;;;5105338;28;20946;-71
2022/10/19 02:35:39;;;;;;;14.70;11.98;;;10.50;98.70;;;;;;5106413;28;20432;-69
2022/10/19 02:38:07;;;;;;;13.63;12.23;;;10.40;98.70;;;;;;5106553;28;20435;-69
2022/10/19 02:40:39;;;;;;;13.82;12.32;;;10.40;98.70;;;;;;5105704;28;20432;-69
2022/10/19 02:43:11;;;;;;;14.82;12.38;;;10.40;98.40;;;;;;5109749;28;20428;-68
2022/10/19 02:45:44;;;;;;;14.43;12.93;;;10.40;98.50;;;;;;5114899;27;20427;-69
2022/10/19 02:48:18;;;;;;;14.30;12.80;;;10.30;98.50;;;;;;5110574;28;20432;-70
2022/10/19 02:50:46;;;;;;;13.60;11.90;;;10.30;98.60;;;;;;5113102;27;20504;-68
2022/10/19 02:53:13;;;;;;;12.10;10.82;;;10.30;98.60;;;;;;5118465;27;20424;-69
2022/10/19 02:55:41;;;;;;;12.55;11.23;;;10.20;98.40;;;;;;5110510;28;20428;-69
2022/10/19 02:58:08;;;;;;;12.60;11.50;;;10.10;98.50;;;;;;5109973;28;20435;-71
2022/10/19 03:00:34;;;;;;;14.43;11.95;;;10.10;98.60;;;;;;5111224;28;20420;-69
2022/10/19 03:03:02;;;;;;;11.27;10.25;;;10.10;98.70;;;;;;5108561;27;20424;-69
2022/10/19 03:05:30;;;;;;;12.95;10.98;;;10.10;98.70;;;;;;5110593;28;20416;-68
2022/10/19 03:07:57;;;;;;;12.77;11.48;;;10.10;98.60;;;;;;5108186;28;20434;-70
2022/10/19 03:10:23;;;;;;;11.63;10.50;;;10.00;98.40;;;;;;5106300;28;20431;-71
2022/10/19 03:12:50;;;;;;;14.17;10.93;;;10.00;98.40;;;;;;5108770;28;20441;-69
2022/10/19 03:15:18;;;;;;;12.00;10.68;;;10.00;98.60;;;;;;5112456;27;20414;-69
2022/10/19 03:17:45;;;;;;;10.27;9.18;;;9.90;98.30;;;;;;5111380;27;20439;-69
2022/10/19 03:20:12;;;;;;;11.75;10.55;;;9.90;98.10;;;;;;5108536;27;20416;-68
2022/10/19 03:22:40;;;;;;;12.50;10.68;;;9.80;98.30;;;;;;5112554;27;20432;-71
2022/10/19 03:25:07;;;;;;;11.90;9.90;;;9.80;98.50;;;;;;5105645;28;20466;-69
2022/10/19 03:27:34;;;;;;;12.70;11.40;;;9.90;98.90;;;;;;5109957;28;20484;-71
2022/10/19 03:30:01;;;;;;;11.70;10.50;;;9.90;99.00;;;;;;5109287;28;20438;-68
2022/10/19 03:32:27;;;;;;;11.52;10.32;;;9.90;98.90;;;;;;5109085;28;20670;-70
2022/10/19 03:34:54;;;;;;;11.82;10.73;;;9.90;98.90;;;;;;5110011;27;20465;-67
2022/10/19 03:37:21;;;;;;;13.93;10.90;;;9.80;98.80;;;;;;5108959;28;21187;-71
2022/10/19 03:39:49;;;;;;;12.40;11.30;;;9.80;98.70;;;;;;5109612;28;20428;-70
2022/10/19 03:42:16;;;;;;;12.93;11.52;;;9.80;98.80;;;;;;5108914;28;20428;-69
2022/10/19 03:44:42;;;;;;;13.63;12.23;;;9.80;99.00;;;;;;5110911;27;20530;-69
2022/10/19 03:47:09;;;;;;;15.30;13.70;;;9.70;98.90;;;;;;5110054;27;20412;-70
2022/10/19 03:49:36;;;;;;;12.02;10.93;;;9.70;99.00;;;;;;5109663;28;20427;-68
2022/10/19 03:52:03;;;;;;;13.00;11.73;;;9.60;98.80;;;;;;5109810;28;20423;-68
2022/10/19 03:54:29;;;;;;;13.25;11.85;;;9.60;98.80;;;;;;5107544;28;20810;-70
2022/10/19 03:56:57;;;;;;;13.38;11.80;;;9.60;99.00;;;;;;5109546;28;20436;-69
2022/10/19 03:59:24;;;;;;;13.30;11.75;;;9.60;99.00;;;;;;5108779;28;20439;-68
2022/10/19 04:01:51;;;;;;;13.10;11.73;;;9.60;99.20;;;;;;5106599;28;20424;-70
2022/10/19 04:04:19;;;;;;;12.70;11.40;;;9.50;99.10;;;;;;5108618;28;20957;-70
2022/10/19 04:06:48;;;;;;;14.18;12.80;;;9.50;99.40;;;;;;5109211;28;20428;-70
2022/10/19 04:09:16;;;;;;;14.23;12.60;;;9.50;99.60;;;;;;5105910;28;20497;-70
2022/10/19 04:11:44;;;;;;;15.25;12.98;;;9.60;99.80;;;;;;5110983;27;23261;-70
2022/10/19 04:14:13;;;;;;;13.73;12.32;;;9.50;99.70;;;;;;5107510;28;20420;-71
2022/10/19 04:16:40;;;;;;;15.23;13.05;;;9.50;99.80;;;;;;5109361;27;20428;-71
2022/10/19 04:19:08;;;;;;;14.00;12.70;;;9.50;99.90;;;;;;5115240;27;20482;-69
2022/10/19 04:21:36;;;;;;;13.68;12.43;;;9.50;99.90;;;;;;5112036;27;20435;-69
2022/10/19 04:24:08;;;;;;;12.60;11.48;;;9.50;99.90;;;;;;5116574;27;20422;-70
2022/10/19 04:26:39;;;;;;;12.75;11.65;;;9.50;99.90;;;;;;5109542;28;20910;-71
2022/10/19 04:29:06;;;;;;;13.25;12.00;;;9.50;99.90;;;;;;5109780;28;20435;-69
2022/10/19 04:31:34;;;;;;;12.68;11.48;;;9.40;99.80;;;;;;5128664;27;20411;-70
2022/10/19 04:34:01;;;;;;;12.40;11.30;;;9.40;99.70;;;;;;5117070;27;20414;-69
2022/10/19 04:36:28;;;;;;;13.20;11.93;;;9.40;99.80;;;;;;5118369;27;20443;-72
2022/10/19 04:38:54;;;;;;;15.10;13.70;;;9.40;99.80;;;;;;5114226;27;20412;-67
2022/10/19 04:41:22;;;;;;;13.68;12.38;;;9.40;99.70;;;;;;5114672;27;20428;-68
2022/10/19 04:43:55;;;;;;;13.00;11.20;;;9.30;99.60;;;;;;5108482;28;20921;-67
2022/10/19 04:46:21;;;;;;;12.57;11.38;;;9.30;99.50;;;;;;5104483;27;20416;-68
2022/10/19 04:48:50;;;;;;;13.00;11.57;;;9.30;99.50;;;;;;5116676;27;20429;-67
2022/10/19 04:51:17;;;;;;;13.40;11.73;;;9.20;99.50;;;;;;5109311;27;20431;-71
2022/10/19 04:53:44;;;;;;;12.80;11.60;;;9.20;99.60;;;;;;5112436;27;20504;-67
2022/10/19 04:56:14;;;;;;;12.50;11.30;;;9.20;99.60;;;;;;5111027;27;20436;-67
2022/10/19 04:58:40;;;;;;;13.35;12.00;;;9.20;99.70;;;;;;5111055;27;20420;-68
2022/10/19 05:01:08;;;;;;;12.75;11.13;;;9.20;99.90;;;;;;5132802;27;21194;-68
2022/10/19 05:03:35;;;;;;;12.97;11.67;;;9.20;99.90;;;;;;5123239;27;20639;-68
2022/10/19 05:06:04;;;;;;;12.73;11.43;;;9.20;99.70;;;;;;5112093;27;20407;-69
2022/10/19 05:08:31;;;;;;;13.07;11.77;;;9.20;99.90;;;;;;5109344;27;20439;-69
2022/10/19 05:11:02;;;;;;;13.55;12.15;;;9.20;99.90;;;;;;5109144;28;20415;-68
2022/10/19 05:13:28;;;;;;;12.95;11.48;;;9.10;99.80;;;;;;5108629;28;20420;-70
2022/10/19 05:15:56;;;;;;;12.70;11.40;;;9.00;99.70;;;;;;5108673;28;20420;-67
2022/10/19 05:18:23;;;;;;;12.57;11.38;;;9.00;99.90;;;;;;5107961;28;20416;-69
2022/10/19 05:20:50;;;;;;;12.70;11.48;;;9.00;99.90;;;;;;5106912;28;20439;-70
2022/10/19 05:23:18;;;;;;;12.52;11.23;;;9.00;99.80;;;;;;5115522;27;20430;-70
2022/10/19 05:25:45;;;;;;;13.10;11.90;;;8.90;99.80;;;;;;5117974;27;20429;-69
2022/10/19 05:28:12;;;;;;;12.40;11.30;;;8.80;99.80;;;;;;5106891;28;20431;-67
2022/10/19 05:30:38;;;;;;;11.80;10.80;;;8.80;99.80;;;;;;5108371;28;20469;-70
2022/10/19 05:33:05;;;;;;;12.05;11.05;;;8.80;99.70;;;;;;5121968;27;20419;-70
2022/10/19 05:35:32;;;;;;;13.32;11.93;;;8.70;99.70;;;;;;5107116;28;20531;-69
2022/10/19 05:37:59;;;;;;;12.73;11.20;;;8.60;99.60;;;;;;5116242;27;20517;-69
2022/10/19 05:40:27;;;;;;;13.10;11.90;;;8.60;99.70;;;;;;5108240;27;20408;-71
2022/10/19 05:42:53;;;;;;;14.02;12.23;;;8.50;99.80;;;;;;5100679;28;20936;-70
2022/10/19 05:45:20;;;;;;;15.95;12.77;;;8.40;99.70;;;;;;5118670;27;20410;-69
2022/10/19 05:47:47;;;;;;;25.63;12.82;;;8.50;99.90;;;;;;5110126;27;20413;-69
2022/10/19 05:50:14;;;;;;;47.53;13.82;;;8.60;99.90;;;;;;5107302;28;20416;-71
2022/10/19 05:52:40;;;;;;;16.23;13.93;;;8.60;99.90;;;;;;5107940;28;20419;-71
2022/10/19 05:55:08;;;;;;;31.92;14.45;;;8.50;99.90;;;;;;5108255;28;20416;-71
2022/10/19 05:57:36;;;;;;;23.30;15.02;;;8.50;99.90;;;;;;5104982;28;20435;-69
2022/10/19 06:00:04;;;;;;;28.25;15.02;;;8.40;99.90;;;;;;5107246;28;20434;-69
2022/10/19 06:02:31;;;;;;;64.13;16.30;;;8.40;99.90;;;;;;5118134;27;20451;-69
2022/10/19 06:04:58;;;;;;;38.40;15.13;;;8.40;99.90;;;;;;5116125;27;20416;-69
2022/10/19 06:07:24;;;;;;;24.83;16.40;;;8.40;99.90;;;;;;5107908;28;20412;-68
2022/10/19 06:09:51;;;;;;;18.40;15.70;;;8.40;99.90;;;;;;5107810;28;20419;-68
2022/10/19 06:12:18;;;;;;;15.18;13.57;;;8.40;99.90;;;;;;5106767;28;20424;-71
2022/10/19 06:14:50;;;;;;;13.48;12.27;;;8.50;99.90;;;;;;5104405;28;20514;-68
2022/10/19 06:17:16;;;;;;;13.43;12.23;;;8.50;99.90;;;;;;5094657;28;20408;-69
2022/10/19 06:19:43;;;;;;;11.90;10.80;;;8.60;99.90;;;;;;5107712;28;20416;-68
2022/10/19 06:22:10;;;;;;;32.40;11.88;;;8.60;99.90;;;;;;5114759;28;20434;-69
2022/10/19 06:24:37;;;;;;;14.10;12.40;;;8.60;99.90;;;;;;5114114;27;20519;-68
2022/10/19 06:27:05;;;;;;;12.93;11.63;;;8.60;99.90;;;;;;5105989;28;20436;-69
2022/10/19 06:29:32;;;;;;;13.87;12.40;;;8.60;99.90;;;;;;5106341;28;21285;-69
2022/10/19 06:32:00;;;;;;;13.60;12.40;;;8.60;99.90;;;;;;5115429;28;20749;-69
2022/10/19 06:34:26;;;;;;;14.23;12.73;;;8.50;99.90;;;;;;5112307;28;20404;-68
2022/10/19 06:36:53;;;;;;;15.27;13.55;;;8.50;99.90;;;;;;5117313;28;20815;-68
2022/10/19 06:39:20;;;;;;;17.92;14.32;;;8.50;99.90;;;;;;5112333;28;20409;-70
2022/10/19 06:41:47;;;;;;;23.50;14.77;;;8.40;99.90;;;;;;5105771;28;20424;-69
2022/10/19 06:44:13;;;;;;;22.87;15.67;;;8.40;99.90;;;;;;5109867;28;20428;-68
2022/10/19 06:46:40;;;;;;;37.33;17.08;;;8.40;99.90;;;;;;5110209;28;20960;-71
2022/10/19 06:49:13;;;;;;;22.13;16.15;;;8.40;99.90;;;;;;5103339;28;20446;-70
2022/10/19 06:51:40;;;;;;;25.73;17.08;;;8.40;99.90;;;;;;5109163;28;20412;-70
2022/10/19 06:54:07;;;;;;;19.07;15.30;;;8.50;99.90;;;;;;5111479;27;20406;-70
2022/10/19 06:56:34;;;;;;;22.10;16.58;;;8.50;99.90;;;;;;5116727;28;20499;-69
2022/10/19 06:59:00;;;;;;;18.50;16.02;;;8.50;99.90;;;;;;5110960;28;20403;-69
2022/10/19 07:01:27;;;;;;;22.83;16.65;;;8.60;99.90;;;;;;5118245;28;20416;-70
2022/10/19 07:03:54;;;;;;;30.83;17.67;;;8.60;99.90;;;;;;5111132;27;20433;-68
2022/10/19 07:06:23;;;;;;;17.85;15.00;;;8.60;99.90;;;;;;5128155;28;20411;-69
2022/10/19 07:08:49;;;;;;;17.67;14.10;;;8.70;99.90;;;;;;5109912;28;20897;-69
2022/10/19 07:11:18;;;;;;;17.30;14.48;;;8.70;99.90;;;;;;5105074;28;20436;-70
2022/10/19 07:13:45;;;;;;;15.23;13.10;;;8.80;99.90;;;;;;5114145;27;20912;-70
2022/10/19 07:16:14;;;;;;;15.25;12.55;;;8.80;99.90;;;;;;5117009;28;20424;-68
2022/10/19 07:18:41;;;;;;;14.47;13.10;;;8.80;99.90;;;;;;5107374;28;20420;-69
2022/10/19 07:21:10;;;;;;;14.48;12.35;;;8.90;99.90;;;;;;5107843;28;20460;-69
2022/10/19 07:23:39;;;;;;;12.68;11.38;;;9.00;99.90;;;;;;5125617;28;20908;-69
2022/10/19 07:26:10;;;;;;;13.00;11.70;;;9.10;99.90;;;;;;5103503;28;21095;-68
2022/10/19 07:28:38;;;;;;;12.07;10.88;;;9.20;99.90;;;;;;5107771;28;20428;-70
2022/10/19 07:31:07;;;;;;;11.25;9.82;;;9.40;99.70;;;;;;5111075;28;20476;-68
2022/10/19 07:33:34;;;;;;;10.90;9.70;;;9.50;99.40;;;;;;5108348;28;20435;-70
2022/10/19 07:36:01;;;;;;;11.02;9.70;;;9.60;98.50;;;;;;5104671;27;20431;-68
2022/10/19 07:38:28;;;;;;;9.00;8.10;;;9.70;98.10;;;;;;5108008;27;20435;-70
2022/10/19 07:41:07;;;;;;;8.30;7.50;;;9.90;97.70;;;;;;5108987;28;20512;-69
2022/10/19 07:43:35;;;;;;;8.75;6.70;;;10.00;96.70;;;;;;5110195;28;20428;-69
2022/10/19 07:46:04;;;;;;;8.30;7.10;;;10.20;95.80;;;;;;5110268;28;20762;-69
2022/10/19 07:48:31;;;;;;;8.43;6.60;;;10.30;94.90;;;;;;5109128;28;20424;-68
2022/10/19 07:50:58;;;;;;;7.22;6.30;;;10.40;94.70;;;;;;5114051;27;20417;-70
2022/10/19 07:53:25;;;;;;;10.10;6.73;;;10.60;93.80;;;;;;5114208;28;20431;-68
2022/10/19 07:55:52;;;;;;;7.20;6.13;;;10.70;93.20;;;;;;5122666;27;20407;-69
2022/10/19 07:58:20;;;;;;;6.85;6.15;;;10.80;93.30;;;;;;5123240;27;20772;-69
2022/10/19 08:00:46;;;;;;;7.28;6.40;;;11.00;92.60;;;;;;5136537;27;20406;-69
2022/10/19 08:03:13;;;;;;;7.30;5.90;;;11.10;92.30;;;;;;5122087;27;20428;-69
2022/10/19 08:05:40;;;;;;;6.95;5.60;;;11.30;91.80;;;;;;5124410;27;20497;-69
2022/10/19 08:08:07;;;;;;;6.50;5.90;;;11.50;91.50;;;;;;5138756;27;20414;-68
2022/10/19 08:10:33;;;;;;;6.18;5.57;;;11.70;91.00;;;;;;5115373;27;20421;-69
2022/10/19 08:13:00;;;;;;;6.38;5.78;;;11.90;90.20;;;;;;5133252;27;20410;-69
2022/10/19 08:15:29;;;;;;;9.07;5.95;;;12.10;89.80;;;;;;5139120;27;20410;-69
2022/10/19 08:17:56;;;;;;;8.27;5.80;;;12.30;89.20;;;;;;5111914;27;20914;-68
2022/10/19 08:20:22;;;;;;;11.07;5.82;;;12.50;85.90;;;;;;5112736;28;20423;-69
2022/10/19 08:22:49;;;;;;;12.57;5.80;;;12.70;85.70;;;;;;5109810;28;20802;-69
2022/10/19 08:25:16;;;;;;;9.40;5.23;;;12.70;85.10;;;;;;5105198;28;20428;-68
2022/10/19 08:27:42;;;;;;;5.57;4.97;;;12.90;84.30;;;;;;5109800;28;20765;-69
2022/10/19 08:30:10;;;;;;;8.82;5.30;;;12.90;82.70;;;;;;5109949;28;20472;-68
2022/10/19 08:32:38;;;;;;;6.20;5.20;;;12.90;83.70;;;;;;5108921;27;20925;-69
2022/10/19 08:35:06;;;;;;;7.28;5.35;;;13.20;83.20;;;;;;5110366;28;20412;-69
2022/10/19 08:37:32;;;;;;;7.10;4.90;;;13.40;81.10;;;;;;5111229;28;20422;-70
2022/10/19 08:39:59;;;;;;;7.50;5.53;;;13.50;80.50;;;;;;5110843;28;20438;-69
2022/10/19 08:42:33;;;;;;;7.10;5.27;;;13.70;79.70;;;;;;5114842;27;20407;-68
2022/10/19 08:45:20;;;;;;;5.53;5.00;;;13.70;79.40;;;;;;5118107;27;20439;-68
2022/10/19 08:47:58;;;;;;;7.22;6.28;;;13.70;78.20;;;;;;5108375;28;20411;-70
2022/10/19 08:50:27;;;;;;;9.23;5.90;;;13.80;78.80;;;;;;5124947;27;20417;-69
2022/10/19 08:53:01;;;;;;;7.70;6.25;;;14.00;78.30;;;;;;5113605;28;20413;-68
2022/10/19 08:55:36;;;;;;;7.00;4.70;;;14.30;77.40;;;;;;5109293;28;20508;-68
2022/10/19 08:58:16;;;;;;;5.90;4.45;;;14.60;75.00;;;;;;5113589;27;20423;-68
2022/10/19 09:00:48;;;;;;;7.35;4.80;;;14.60;74.10;;;;;;5118982;27;20431;-67
2022/10/19 09:03:23;;;;;;;6.70;5.10;;;14.70;73.60;;;;;;5136193;27;20428;-69
2022/10/19 09:05:55;;;;;;;7.00;4.70;;;14.70;73.50;;;;;;5121264;27;20419;-69
2022/10/19 09:08:22;;;;;;;5.32;4.60;;;14.70;73.40;;;;;;5112541;28;20408;-68
2022/10/19 09:10:51;;;;;;;7.22;4.85;;;14.90;72.40;;;;;;5119265;27;20429;-69
2022/10/19 09:13:31;;;;;;;7.30;5.00;;;15.10;72.90;;;;;;5113545;27;20416;-69
2022/10/19 09:15:58;;;;;;;6.47;4.70;;;15.30;71.60;;;;;;5112251;27;20452;-69
2022/10/19 09:18:28;;;;;;;5.22;4.57;;;15.40;71.00;;;;;;5118581;27;20435;-69
2022/10/19 09:21:00;;;;;;;6.60;4.60;;;15.50;70.60;;;;;;5132930;27;20804;-70
2022/10/19 09:23:35;;;;;;;5.95;4.35;;;15.60;70.80;;;;;;5127638;27;20426;-70
2022/10/19 09:26:05;;;;;;;6.55;4.80;;;15.80;70.20;;;;;;5114333;27;20430;-69
2022/10/19 09:28:43;;;;;;;5.03;4.32;;;15.90;68.90;;;;;;5106341;28;20428;-69
2022/10/19 09:31:15;;;;;;;4.87;4.20;;;15.90;69.10;;;;;;5115218;28;20913;-68
2022/10/19 09:33:50;;;;;;;6.03;4.50;;;15.90;69.50;;;;;;5124602;27;20949;-69
2022/10/19 09:36:17;;;;;;;10.63;7.85;;;16.00;69.60;;;;;;5124668;27;20438;-69
2022/10/19 09:38:44;;;;;;;7.50;5.70;;;16.20;68.60;;;;;;5120799;27;20457;-69
2022/10/19 09:41:17;;;;;;;5.00;4.50;;;16.30;67.10;;;;;;5110481;27;20416;-69
2022/10/19 09:43:51;;;;;;;7.43;4.05;;;16.30;68.40;;;;;;5109102;28;20487;-68
2022/10/19 09:46:28;;;;;;;7.32;4.53;;;16.50;67.80;;;;;;5108884;28;20466;-69
2022/10/19 09:49:00;;;;;;;7.23;4.50;;;16.60;67.30;;;;;;5108523;28;20412;-68
2022/10/19 09:51:38;;;;;;;4.88;4.25;;;16.80;66.20;;;;;;5108490;28;20412;-70
2022/10/19 09:54:05;;;;;;;8.17;4.60;;;16.90;65.80;;;;;;5115372;27;20495;-70
2022/10/19 09:56:39;;;;;;;5.70;4.70;;;17.20;65.00;;;;;;5111828;27;20408;-71
2022/10/19 09:59:20;;;;;;;6.57;4.30;;;17.60;63.80;;;;;;5112599;27;20421;-70
2022/10/19 10:01:58;;;;;;;6.60;4.50;;;17.60;64.00;;;;;;5116457;27;20419;-69
2022/10/19 10:04:26;;;;;;;6.22;4.00;;;17.50;63.50;;;;;;5096015;28;20431;-68
2022/10/19 10:06:54;;;;;;;7.15;4.38;;;17.60;62.90;;;;;;5122868;27;21061;-69
2022/10/19 10:09:26;;;;;;;6.40;3.67;;;17.60;63.70;;;;;;5108098;28;20443;-69
2022/10/19 10:11:54;;;;;;;5.43;3.70;;;17.90;63.80;;;;;;5125891;27;20525;-68
2022/10/19 10:14:25;;;;;;;5.13;3.67;;;18.20;62.80;;;;;;5111927;27;20440;-69
2022/10/19 10:16:55;;;;;;;4.30;3.90;;;18.30;61.80;;;;;;5106750;28;20777;-69
2022/10/19 10:19:26;;;;;;;5.90;4.00;;;18.30;60.50;;;;;;5108493;28;20765;-69
2022/10/19 10:21:56;;;;;;;7.65;4.65;;;18.30;61.80;;;;;;5122156;27;20419;-69
2022/10/19 10:24:25;;;;;;;6.10;4.10;;;18.40;61.10;;;;;;5106074;28;20590;-68
2022/10/19 10:26:54;;;;;;;6.18;4.35;;;18.50;60.70;;;;;;5105186;28;20431;-68
2022/10/19 10:29:23;;;;;;;6.40;4.00;;;18.70;60.90;;;;;;5108000;28;20428;-69
2022/10/19 10:31:53;;;;;;;4.75;4.07;;;18.90;60.00;;;;;;5111637;28;20419;-69
2022/10/19 10:34:31;;;;;;;5.65;4.30;;;19.10;59.00;;;;;;5121970;27;20417;-68
2022/10/19 10:37:00;;;;;;;6.55;4.25;;;19.30;58.60;;;;;;5108550;28;20416;-69
2022/10/19 10:39:28;;;;;;;4.30;3.90;;;19.30;58.30;;;;;;5111507;28;20434;-68
2022/10/19 10:41:57;;;;;;;6.38;4.00;;;19.20;58.70;;;;;;5102973;28;20976;-68
2022/10/19 10:44:28;;;;;;;7.28;4.45;;;19.30;58.40;;;;;;5114811;28;20435;-70
2022/10/19 10:46:58;;;;;;;5.30;4.10;;;19.60;58.10;;;;;;5110528;28;20423;-69
2022/10/19 10:49:28;;;;;;;6.00;3.88;;;19.70;57.60;;;;;;5129624;28;20418;-69
2022/10/19 10:51:57;;;;;;;7.43;4.40;;;19.50;58.00;;;;;;5112820;28;20408;-70
2022/10/19 10:54:26;;;;;;;5.13;3.83;;;19.60;57.80;;;;;;5117117;27;20436;-71
2022/10/19 10:57:08;;;;;;;5.88;4.40;;;19.70;57.60;;;;;;5120190;28;20412;-69
2022/10/19 10:59:39;;;;;;;5.60;3.90;;;19.90;56.90;;;;;;5131260;28;20416;-68
2022/10/19 11:02:16;;;;;;;6.37;3.73;;;20.00;57.60;;;;;;5138150;28;20513;-67
2022/10/19 11:04:50;;;;;;;6.38;4.60;;;20.10;56.30;;;;;;5147258;27;20423;-68
2022/10/19 11:07:20;;;;;;;4.85;3.72;;;20.20;56.20;;;;;;5133644;27;20408;-70
2022/10/19 11:09:53;;;;;;;10.00;4.20;;;20.20;56.00;;;;;;5104854;28;20534;-70
2022/10/19 11:12:31;;;;;;;10.98;4.57;;;20.60;55.10;;;;;;5120033;27;20438;-69
2022/10/19 11:15:03;;;;;;;5.53;3.80;;;20.90;55.40;;;;;;5114471;27;20416;-71
2022/10/19 11:17:36;;;;;;;4.43;3.50;;;21.20;53.90;;;;;;5123785;27;20412;-69
2022/10/19 11:20:05;;;;;;;10.70;4.20;;;21.30;52.40;;;;;;5111233;27;20801;-70
2022/10/19 11:22:40;;;;;;;7.70;3.53;;;21.10;53.10;;;;;;5123195;27;20496;-70
2022/10/19 11:25:29;;;;;;;5.75;3.60;;;21.20;53.90;;;;;;5114180;27;20436;-69
2022/10/19 11:28:12;;;;;;;4.57;3.50;;;21.50;53.70;;;;;;5130700;27;20415;-70
2022/10/19 11:30:49;;;;;;;6.80;3.40;;;21.40;52.70;;;;;;5131064;27;20407;-71
2022/10/19 11:33:27;;;;;;;7.15;3.72;;;21.20;54.00;;;;;;5110636;28;20428;-69
2022/10/19 11:35:58;;;;;;;5.20;3.10;;;21.50;52.00;;;;;;5112114;28;20767;-70
2022/10/19 11:38:34;;;;;;;3.90;2.80;;;21.80;51.50;;;;;;5100115;28;20411;-71
2022/10/19 11:41:12;;;;;;;7.13;3.20;;;22.00;51.50;;;;;;5102383;28;20449;-72
2022/10/19 11:43:49;;;;;;;6.20;3.30;;;22.30;50.40;;;;;;5133644;27;20405;-70
2022/10/19 11:46:22;;;;;;;4.63;3.33;;;22.40;49.40;;;;;;5152834;27;20418;-71
2022/10/19 11:49:21;;;;;;;4.03;2.88;;;22.30;48.90;;;;;;5134087;27;20409;-68
2022/10/19 11:51:56;;;;;;;4.85;3.25;;;22.50;49.60;;;;;;5102662;28;20424;-70
2022/10/19 11:54:34;;;;;;;5.68;3.13;;;22.70;46.80;;;;;;5111925;28;20980;-69
2022/10/19 11:57:09;;;;;;;5.70;2.80;;;22.40;47.60;;;;;;5109590;27;20416;-69
2022/10/19 11:59:49;;;;;;;5.67;3.33;;;22.40;49.50;;;;;;5112104;28;20420;-70
2022/10/19 12:02:45;;;;;;;5.55;3.03;;;22.30;48.20;;;;;;5110450;28;20404;-68
2022/10/19 12:05:17;;;;;;;4.53;2.95;;;22.50;49.30;;;;;;5100793;28;20424;-69
2022/10/19 12:07:56;;;;;;;3.72;2.90;;;22.40;49.10;;;;;;5111922;28;20412;-71
2022/10/19 12:10:32;;;;;;;5.35;2.60;;;22.90;48.00;;;;;;5114199;27;21064;-71
2022/10/19 12:13:03;;;;;;;4.10;2.70;;;23.00;46.40;;;;;;5109689;27;20428;-69
2022/10/19 12:15:32;;;;;;;3.88;2.42;;;22.80;47.20;;;;;;5109543;28;20415;-69
2022/10/19 12:18:03;;;;;;;5.07;3.00;;;22.60;46.20;;;;;;5111921;28;20898;-70
2022/10/19 12:20:35;;;;;;;7.03;2.90;;;22.30;48.60;;;;;;5102259;27;20922;-69
2022/10/19 12:23:20;;;;;;;4.87;2.73;;;22.50;48.30;;;;;;5109286;27;20424;-69
2022/10/19 12:25:48;;;;;;;5.07;2.80;;;22.70;47.60;;;;;;5125253;27;20418;-68
2022/10/19 12:28:24;;;;;;;5.82;2.50;;;22.80;46.70;;;;;;5111519;28;20485;-69
2022/10/19 12:30:52;;;;;;;4.60;2.50;;;22.90;47.10;;;;;;5113303;28;20413;-70
2022/10/19 12:33:24;;;;;;;4.50;2.40;;;23.20;46.10;;;;;;5111261;28;20469;-69
2022/10/19 12:36:00;;;;;;;3.60;2.50;;;23.40;47.10;;;;;;5110153;28;20415;-68
2022/10/19 12:38:35;;;;;;;3.65;2.30;;;23.50;45.80;;;;;;5105323;27;20415;-69
2022/10/19 12:41:07;;;;;;;4.82;2.60;;;23.40;45.80;;;;;;5099907;28;20426;-70
2022/10/19 12:43:43;;;;;;;7.97;2.70;;;23.40;46.40;;;;;;5110698;28;20412;-68
2022/10/19 12:46:17;;;;;;;4.30;2.60;;;23.40;46.20;;;;;;5111131;28;20424;-68
2022/10/19 12:48:44;;;;;;;4.70;2.42;;;23.60;45.90;;;;;;5110345;28;20439;-70
2022/10/19 12:51:18;;;;;;;5.43;2.40;;;23.60;45.20;;;;;;5111110;28;20415;-70
2022/10/19 12:53:47;;;;;;;3.92;2.42;;;23.50;47.10;;;;;;5110588;28;20412;-69